Wetterdaten: Woche 25.09.17 - 01.10.17 (KW39)
Datum Zeit Temp. I. Temp. A. Feuchte I. Feuchte A. Luftdruck Regen Wind Richtung Sonnenschein UV Solar Taupunkt Windchill Windben
25.09.2017 00:00 22,3 C 8,8 C 59 % 94 % 1022,1 hPa 0,0 l/m 0,0 km/h (0 Bft) N 0,00 h 0,0 UV-I 0 W/m 7,9 C 8,8 C 0,0 km/h (0 Bft)
25.09.2017 01:00 22,3 C 8,7 C 60 % 95 % 1022,0 hPa 0,0 l/m 0,0 km/h (0 Bft) N 0,00 h 0,0 UV-I 0 W/m 7,9 C 8,7 C 0,0 km/h (0 Bft)
25.09.2017 02:00 22,3 C 9,0 C 61 % 95 % 1021,6 hPa 0,0 l/m 0,0 km/h (0 Bft) N 0,00 h 0,0 UV-I 0 W/m 8,2 C 9,0 C 0,0 km/h (0 Bft)
25.09.2017 03:00 22,4 C 9,5 C 60 % 96 % 1021,3 hPa 0,0 l/m 0,0 km/h (0 Bft) N 0,00 h 0,0 UV-I 0 W/m 8,8 C 9,5 C 0,0 km/h (0 Bft)
25.09.2017 04:00 22,4 C 9,8 C 60 % 96 % 1020,9 hPa 0,0 l/m 0,0 km/h (0 Bft) N 0,00 h 0,0 UV-I 0 W/m 9,2 C 9,8 C 0,0 km/h (0 Bft)
25.09.2017 05:00 22,3 C 10,0 C 60 % 95 % 1020,6 hPa 0,0 l/m 0,0 km/h (0 Bft) N 0,00 h 0,0 UV-I 0 W/m 9,3 C 10,0 C 0,0 km/h (0 Bft)
25.09.2017 06:00 22,5 C 10,2 C 60 % 95 % 1020,5 hPa 0,0 l/m 0,0 km/h (0 Bft) N 0,00 h 0,0 UV-I 0 W/m 9,5 C 10,2 C 0,0 km/h (0 Bft)
25.09.2017 07:00 22,6 C 10,3 C 59 % 95 % 1020,5 hPa 0,0 l/m 0,0 km/h (0 Bft) N 0,00 h 0,0 UV-I 15 W/m 9,6 C 10,3 C 0,0 km/h (0 Bft)
25.09.2017 08:00 22,5 C 10,5 C 58 % 96 % 1020,6 hPa 0,0 l/m 0,0 km/h (0 Bft) N 0,00 h 0,5 UV-I 46 W/m 9,9 C 10,5 C 0,1 km/h (0 Bft)
25.09.2017 09:00 22,6 C 11,4 C 58 % 94 % 1020,6 hPa 0,0 l/m 0,0 km/h (0 Bft) N 0,00 h 0,7 UV-I 120 W/m 10,6 C 11,4 C 0,0 km/h (0 Bft)
25.09.2017 10:00 22,8 C 12,4 C 57 % 91 % 1020,6 hPa 0,0 l/m 0,0 km/h (0 Bft) N 0,40 h 0,9 UV-I 152 W/m 11,0 C 12,4 C 0,0 km/h (0 Bft)
25.09.2017 11:00 22,9 C 13,1 C 59 % 87 % 1020,4 hPa 0,0 l/m 0,0 km/h (0 Bft) N 0,33 h 0,9 UV-I 131 W/m 11,0 C 13,1 C 0,0 km/h (0 Bft)
25.09.2017 12:00 22,9 C 12,8 C 59 % 87 % 1020,4 hPa 0,0 l/m 0,0 km/h (0 Bft) N 0,00 h 0,5 UV-I 62 W/m 10,7 C 12,8 C 0,0 km/h (0 Bft)
25.09.2017 13:00 22,7 C 13,2 C 58 % 86 % 1020,3 hPa 0,0 l/m 0,0 km/h (0 Bft) N 0,00 h 0,6 UV-I 80 W/m 10,9 C 13,2 C 0,1 km/h (0 Bft)
25.09.2017 14:00 22,7 C 13,6 C 58 % 84 % 1020,2 hPa 0,0 l/m 0,0 km/h (0 Bft) N 0,15 h 1,0 UV-I 139 W/m 11,0 C 13,6 C 0,0 km/h (0 Bft)
25.09.2017 15:00 22,7 C 14,2 C 58 % 82 % 1020,2 hPa 0,0 l/m 0,1 km/h (0 Bft) S 0,92 h 1,0 UV-I 175 W/m 11,2 C 14,2 C 0,4 km/h (0 Bft)
25.09.2017 16:00 22,8 C 15,1 C 59 % 78 % 1020,1 hPa 0,0 l/m 0,6 km/h (0 Bft) O-SO 0,87 h 0,9 UV-I 243 W/m 11,2 C 15,1 C 2,2 km/h (1 Bft)
25.09.2017 17:00 22,8 C 14,5 C 60 % 80 % 1020,3 hPa 0,0 l/m 0,1 km/h (0 Bft) O 0,00 h 0,5 UV-I 75 W/m 11,1 C 14,5 C 0,9 km/h (0 Bft)
25.09.2017 18:00 22,7 C 13,8 C 60 % 84 % 1020,4 hPa 0,0 l/m 0,0 km/h (0 Bft) O-NO 0,00 h 0,0 UV-I 30 W/m 11,0 C 13,8 C 0,4 km/h (0 Bft)
25.09.2017 19:00 22,7 C 12,9 C 61 % 85 % 1020,7 hPa 0,0 l/m 0,0 km/h (0 Bft) O-NO 0,00 h 0,0 UV-I 5 W/m 10,5 C 12,9 C 0,2 km/h (0 Bft)
25.09.2017 20:00 22,8 C 12,2 C 60 % 87 % 1020,9 hPa 0,0 l/m 0,0 km/h (0 Bft) N 0,00 h 0,0 UV-I 0 W/m 10,2 C 12,2 C 0,1 km/h (0 Bft)
25.09.2017 21:00 22,7 C 11,9 C 59 % 89 % 1021,0 hPa 0,0 l/m 0,0 km/h (0 Bft) N 0,00 h 0,0 UV-I 0 W/m 10,0 C 11,9 C 0,3 km/h (0 Bft)
25.09.2017 22:00 22,6 C 11,8 C 59 % 90 % 1021,3 hPa 0,0 l/m 0,1 km/h (0 Bft) O-NO 0,00 h 0,0 UV-I 0 W/m 10,2 C 11,8 C 0,5 km/h (0 Bft)
25.09.2017 23:00 22,7 C 11,4 C 60 % 90 % 1021,3 hPa 0,0 l/m 0,1 km/h (0 Bft) NO 0,00 h 0,0 UV-I 0 W/m 9,9 C 11,4 C 0,9 km/h (0 Bft)
26.09.2017 00:00 23,1 C 10,9 C 62 % 92 % 1021,2 hPa 0,0 l/m 0,5 km/h (0 Bft) O-NO 0,00 h 0,0 UV-I 0 W/m 9,7 C 10,9 C 2,3 km/h (1 Bft)
26.09.2017 01:00 23,0 C 10,3 C 62 % 92 % 1021,2 hPa 0,0 l/m 0,0 km/h (0 Bft) O-NO 0,00 h 0,0 UV-I 0 W/m 9,1 C 10,3 C 0,3 km/h (0 Bft)
26.09.2017 02:00 22,9 C 9,5 C 62 % 92 % 1021,1 hPa 0,0 l/m 0,0 km/h (0 Bft) N 0,00 h 0,0 UV-I 0 W/m 8,2 C 9,5 C 0,2 km/h (0 Bft)
26.09.2017 03:00 22,9 C 9,1 C 63 % 93 % 1021,1 hPa 0,0 l/m 0,3 km/h (0 Bft) NO 0,00 h 0,0 UV-I 0 W/m 8,0 C 9,1 C 2,2 km/h (1 Bft)
26.09.2017 04:00 22,9 C 10,0 C 63 % 95 % 1021,3 hPa 0,0 l/m 0,2 km/h (0 Bft) O-NO 0,00 h 0,0 UV-I 0 W/m 9,3 C 10,0 C 1,3 km/h (1 Bft)
26.09.2017 05:00 22,9 C 9,8 C 63 % 95 % 1021,4 hPa 0,0 l/m 0,0 km/h (0 Bft) O 0,00 h 0,0 UV-I 0 W/m 9,0 C 9,8 C 0,2 km/h (0 Bft)
26.09.2017 06:00 23,1 C 9,9 C 62 % 95 % 1021,4 hPa 0,0 l/m 0,2 km/h (0 Bft) NO 0,00 h 0,0 UV-I 0 W/m 9,1 C 9,9 C 1,3 km/h (1 Bft)
26.09.2017 07:00 23,1 C 10,3 C 62 % 95 % 1021,7 hPa 0,0 l/m 0,3 km/h (0 Bft) NO 0,00 h 0,0 UV-I 12 W/m 9,5 C 10,3 C 1,5 km/h (1 Bft)
26.09.2017 08:00 23,1 C 10,9 C 61 % 94 % 1022,0 hPa 0,0 l/m 1,0 km/h (0 Bft) O-NO 0,00 h 0,0 UV-I 62 W/m 9,9 C 10,9 C 4,1 km/h (1 Bft)
26.09.2017 09:00 22,0 C 11,9 C 56 % 88 % 1022,6 hPa 0,0 l/m 1,5 km/h (1 Bft) O-SO 0,00 h 0,5 UV-I 106 W/m 10,0 C 11,9 C 5,2 km/h (1 Bft)
26.09.2017 10:00 22,2 C 12,3 C 57 % 85 % 1022,7 hPa 0,0 l/m 2,0 km/h (1 Bft) O-SO 0,35 h 0,9 UV-I 157 W/m 9,9 C 12,3 C 5,9 km/h (2 Bft)
26.09.2017 11:00 23,1 C 12,9 C 57 % 83 % 1022,7 hPa 0,0 l/m 2,5 km/h (1 Bft) O-SO 0,82 h 1,2 UV-I 185 W/m 10,1 C 12,8 C 8,1 km/h (2 Bft)
26.09.2017 12:00 23,2 C 13,2 C 58 % 82 % 1022,8 hPa 0,0 l/m 2,0 km/h (1 Bft) O-SO 0,52 h 1,1 UV-I 154 W/m 10,2 C 13,2 C 6,8 km/h (2 Bft)
26.09.2017 13:00 23,2 C 13,8 C 58 % 81 % 1022,9 hPa 0,0 l/m 1,5 km/h (1 Bft) O 0,85 h 1,6 UV-I 261 W/m 10,5 C 13,7 C 5,2 km/h (1 Bft)
26.09.2017 14:00 23,2 C 15,2 C 58 % 76 % 1022,4 hPa 0,0 l/m 1,4 km/h (1 Bft) O-NO 1,02 h 2,1 UV-I 371 W/m 11,0 C 15,2 C 4,6 km/h (1 Bft)
26.09.2017 15:00 23,3 C 16,0 C 58 % 73 % 1022,1 hPa 0,0 l/m 2,0 km/h (1 Bft) SO 0,87 h 1,8 UV-I 420 W/m 11,1 C 15,9 C 6,2 km/h (2 Bft)
26.09.2017 16:00 23,2 C 16,2 C 58 % 71 % 1022,2 hPa 0,0 l/m 3,2 km/h (1 Bft) SO 0,73 h 1,1 UV-I 260 W/m 10,9 C 16,1 C 7,8 km/h (2 Bft)
26.09.2017 17:00 23,2 C 16,4 C 56 % 72 % 1022,2 hPa 0,0 l/m 1,0 km/h (0 Bft) O 0,53 h 0,6 UV-I 156 W/m 11,3 C 16,4 C 2,8 km/h (1 Bft)
26.09.2017 18:00 23,3 C 15,5 C 56 % 75 % 1022,3 hPa 0,0 l/m 0,1 km/h (0 Bft) O 0,00 h 0,0 UV-I 29 W/m 11,2 C 15,5 C 0,3 km/h (0 Bft)
26.09.2017 19:00 23,3 C 13,6 C 57 % 83 % 1022,7 hPa 0,0 l/m 0,0 km/h (0 Bft) N 0,00 h 0,0 UV-I 0 W/m 10,7 C 13,6 C 0,0 km/h (0 Bft)
26.09.2017 20:00 23,5 C 12,1 C 58 % 88 % 1023,2 hPa 0,0 l/m 0,0 km/h (0 Bft) N 0,00 h 0,0 UV-I 0 W/m 10,1 C 12,1 C 0,0 km/h (0 Bft)
26.09.2017 21:00 23,5 C 11,8 C 58 % 91 % 1023,5 hPa 0,0 l/m 0,4 km/h (0 Bft) NO 0,00 h 0,0 UV-I 0 W/m 10,4 C 11,8 C 2,5 km/h (1 Bft)
26.09.2017 22:00 23,5 C 11,7 C 59 % 92 % 1023,8 hPa 0,0 l/m 0,9 km/h (0 Bft) O-NO 0,00 h 0,0 UV-I 0 W/m 10,5 C 11,7 C 3,3 km/h (1 Bft)
26.09.2017 23:00 23,5 C 11,6 C 59 % 93 % 1023,8 hPa 0,0 l/m 0,5 km/h (0 Bft) O-NO 0,00 h 0,0 UV-I 0 W/m 10,4 C 11,6 C 2,2 km/h (1 Bft)
27.09.2017 00:00 23,7 C 11,4 C 60 % 93 % 1023,8 hPa 0,0 l/m 0,5 km/h (0 Bft) O 0,00 h 0,0 UV-I 0 W/m 10,3 C 11,4 C 2,0 km/h (1 Bft)
27.09.2017 01:00 23,8 C 11,0 C 60 % 93 % 1023,8 hPa 0,0 l/m 0,0 km/h (0 Bft) N 0,00 h 0,0 UV-I 0 W/m 9,9 C 11,0 C 0,2 km/h (0 Bft)
27.09.2017 02:00 23,8 C 10,8 C 61 % 94 % 1023,7 hPa 0,0 l/m 0,0 km/h (0 Bft) NO 0,00 h 0,0 UV-I 0 W/m 9,8 C 10,8 C 0,6 km/h (0 Bft)
27.09.2017 03:00 23,8 C 10,5 C 61 % 94 % 1023,6 hPa 0,0 l/m 0,0 km/h (0 Bft) N 0,00 h 0,0 UV-I 0 W/m 9,7 C 10,5 C 0,4 km/h (0 Bft)
27.09.2017 04:00 23,8 C 10,0 C 61 % 94 % 1023,6 hPa 0,0 l/m 0,0 km/h (0 Bft) N 0,00 h 0,0 UV-I 0 W/m 9,1 C 10,0 C 0,1 km/h (0 Bft)
27.09.2017 05:00 23,7 C 8,3 C 62 % 92 % 1023,6 hPa 0,0 l/m 0,0 km/h (0 Bft) N 0,00 h 0,0 UV-I 0 W/m 7,1 C 8,3 C 0,1 km/h (0 Bft)
27.09.2017 06:00 23,8 C 7,1 C 62 % 93 % 1023,7 hPa 0,0 l/m 0,0 km/h (0 Bft) N 0,00 h 0,0 UV-I 0 W/m 6,0 C 7,1 C 0,3 km/h (0 Bft)
27.09.2017 07:00 23,8 C 6,8 C 61 % 94 % 1023,8 hPa 0,0 l/m 0,1 km/h (0 Bft) O 0,00 h 0,0 UV-I 35 W/m 5,9 C 6,8 C 1,5 km/h (1 Bft)
27.09.2017 08:00 23,5 C 10,7 C 59 % 95 % 1024,0 hPa 0,0 l/m 2,6 km/h (1 Bft) O-SO 0,15 h 0,6 UV-I 122 W/m 10,0 C 10,7 C 6,3 km/h (2 Bft)
27.09.2017 09:00 22,8 C 13,8 C 57 % 87 % 1024,2 hPa 0,0 l/m 2,6 km/h (1 Bft) O-SO 0,98 h 0,9 UV-I 272 W/m 11,7 C 13,7 C 6,3 km/h (2 Bft)
27.09.2017 10:00 22,8 C 13,6 C 56 % 87 % 1024,4 hPa 0,0 l/m 1,4 km/h (1 Bft) O-NO 0,45 h 1,2 UV-I 154 W/m 11,5 C 13,6 C 4,8 km/h (1 Bft)
27.09.2017 11:00 22,9 C 15,4 C 55 % 82 % 1024,3 hPa 0,0 l/m 3,0 km/h (1 Bft) O-NO 1,00 h 2,4 UV-I 462 W/m 12,4 C 15,3 C 7,7 km/h (2 Bft)
27.09.2017 12:00 23,4 C 16,9 C 54 % 76 % 1024,1 hPa 0,0 l/m 2,6 km/h (1 Bft) O-NO 1,00 h 3,0 UV-I 589 W/m 12,6 C 16,9 C 6,0 km/h (2 Bft)
27.09.2017 13:00 23,7 C 17,3 C 53 % 75 % 1023,9 hPa 0,0 l/m 2,4 km/h (1 Bft) O-NO 1,00 h 2,8 UV-I 508 W/m 12,8 C 17,2 C 5,7 km/h (1 Bft)
27.09.2017 14:00 23,7 C 18,0 C 52 % 70 % 1023,6 hPa 0,0 l/m 4,3 km/h (1 Bft) O-SO 1,00 h 2,6 UV-I 481 W/m 12,5 C 17,8 C 6,5 km/h (2 Bft)
27.09.2017 15:00 23,7 C 18,4 C 51 % 67 % 1023,5 hPa 0,0 l/m 4,8 km/h (1 Bft) SO 1,00 h 1,9 UV-I 470 W/m 12,2 C 17,9 C 6,8 km/h (2 Bft)
27.09.2017 16:00 23,6 C 18,6 C 51 % 67 % 1023,3 hPa 0,0 l/m 3,4 km/h (1 Bft) O-SO 1,00 h 1,1 UV-I 315 W/m 12,2 C 18,5 C 7,5 km/h (2 Bft)
27.09.2017 17:00 23,4 C 18,2 C 51 % 67 % 1023,3 hPa 0,0 l/m 1,6 km/h (1 Bft) O-SO 0,48 h 0,6 UV-I 152 W/m 12,0 C 18,2 C 4,5 km/h (1 Bft)
27.09.2017 18:00 23,3 C 17,2 C 52 % 72 % 1023,3 hPa 0,0 l/m 0,1 km/h (0 Bft) O-SO 0,00 h 0,0 UV-I 24 W/m 12,0 C 17,2 C 0,2 km/h (0 Bft)
27.09.2017 19:00 23,6 C 14,4 C 53 % 83 % 1023,5 hPa 0,0 l/m 0,0 km/h (0 Bft) N 0,00 h 0,0 UV-I 0 W/m 11,6 C 14,4 C 0,0 km/h (0 Bft)
27.09.2017 20:00 23,7 C 12,3 C 54 % 91 % 1023,8 hPa 0,0 l/m 0,0 km/h (0 Bft) N 0,00 h 0,0 UV-I 0 W/m 10,7 C 12,3 C 0,0 km/h (0 Bft)
27.09.2017 21:00 23,7 C 11,7 C 55 % 93 % 1024,1 hPa 0,0 l/m 0,0 km/h (0 Bft) N 0,00 h 0,0 UV-I 0 W/m 10,6 C 11,7 C 0,0 km/h (0 Bft)
27.09.2017 22:00 23,8 C 11,6 C 55 % 93 % 1024,1 hPa 0,0 l/m 0,0 km/h (0 Bft) N 0,00 h 0,0 UV-I 0 W/m 10,5 C 11,6 C 0,0 km/h (0 Bft)
27.09.2017 23:00 24,0 C 10,9 C 56 % 91 % 1024,0 hPa 0,0 l/m 0,0 km/h (0 Bft) N 0,00 h 0,0 UV-I 0 W/m 9,6 C 10,9 C 0,0 km/h (0 Bft)
28.09.2017 00:00 24,2 C 9,9 C 57 % 91 % 1024,2 hPa 0,0 l/m 0,0 km/h (0 Bft) N 0,00 h 0,0 UV-I 0 W/m 8,5 C 9,9 C 0,0 km/h (0 Bft)
28.09.2017 01:00 24,3 C 9,0 C 58 % 91 % 1024,6 hPa 0,0 l/m 0,0 km/h (0 Bft) N 0,00 h 0,0 UV-I 0 W/m 7,7 C 9,0 C 0,0 km/h (0 Bft)
28.09.2017 02:00 24,3 C 8,0 C 58 % 92 % 1024,8 hPa 0,0 l/m 0,0 km/h (0 Bft) N 0,00 h 0,0 UV-I 0 W/m 6,8 C 8,0 C 0,0 km/h (0 Bft)
28.09.2017 03:00 24,3 C 7,3 C 58 % 93 % 1024,7 hPa 0,0 l/m 0,0 km/h (0 Bft) N 0,00 h 0,0 UV-I 0 W/m 6,2 C 7,3 C 0,0 km/h (0 Bft)
28.09.2017 04:00 24,3 C 6,9 C 58 % 93 % 1024,7 hPa 0,0 l/m 0,0 km/h (0 Bft) N 0,00 h 0,0 UV-I 0 W/m 5,8 C 6,9 C 0,0 km/h (0 Bft)
28.09.2017 05:00 24,2 C 6,4 C 58 % 93 % 1025,0 hPa 0,0 l/m 0,0 km/h (0 Bft) N 0,00 h 0,0 UV-I 0 W/m 5,4 C 6,4 C 0,0 km/h (0 Bft)
28.09.2017 06:00 24,3 C 6,4 C 58 % 94 % 1025,3 hPa 0,0 l/m 0,0 km/h (0 Bft) N 0,00 h 0,0 UV-I 0 W/m 5,6 C 6,4 C 0,0 km/h (0 Bft)
28.09.2017 07:00 24,2 C 7,0 C 57 % 95 % 1025,6 hPa 0,0 l/m 0,0 km/h (0 Bft) N 0,00 h 0,0 UV-I 16 W/m 6,3 C 7,0 C 0,0 km/h (0 Bft)
28.09.2017 08:00 24,1 C 8,4 C 57 % 96 % 1025,9 hPa 0,0 l/m 0,0 km/h (0 Bft) N 0,00 h 0,5 UV-I 84 W/m 7,9 C 8,4 C 0,0 km/h (0 Bft)
28.09.2017 09:00 24,0 C 10,6 C 55 % 97 % 1026,1 hPa 0,0 l/m 0,0 km/h (0 Bft) N 0,80 h 0,8 UV-I 194 W/m 10,1 C 10,6 C 0,1 km/h (0 Bft)
28.09.2017 10:00 23,9 C 13,6 C 55 % 94 % 1026,1 hPa 0,0 l/m 0,0 km/h (0 Bft) N 1,00 h 1,4 UV-I 283 W/m 12,6 C 13,6 C 0,0 km/h (0 Bft)
28.09.2017 11:00 23,4 C 16,1 C 55 % 87 % 1026,0 hPa 0,0 l/m 1,4 km/h (1 Bft) O-NO 1,00 h 2,2 UV-I 392 W/m 13,8 C 16,1 C 2,8 km/h (1 Bft)
28.09.2017 12:00 23,0 C 16,8 C 56 % 83 % 1025,9 hPa 0,0 l/m 1,6 km/h (1 Bft) O-NO 1,00 h 2,3 UV-I 344 W/m 13,9 C 16,8 C 4,9 km/h (1 Bft)
28.09.2017 13:00 23,2 C 16,3 C 55 % 83 % 1025,9 hPa 0,0 l/m 3,4 km/h (1 Bft) O-NO 1,00 h 2,4 UV-I 352 W/m 13,4 C 16,2 C 8,3 km/h (2 Bft)
28.09.2017 14:00 22,5 C 16,4 C 56 % 83 % 1025,8 hPa 0,0 l/m 5,0 km/h (1 Bft) O-NO 1,00 h 1,9 UV-I 276 W/m 13,4 C 16,1 C 10,2 km/h (2 Bft)
28.09.2017 15:00 22,1 C 15,5 C 57 % 85 % 1025,8 hPa 0,0 l/m 4,6 km/h (1 Bft) O-NO 0,85 h 1,2 UV-I 187 W/m 12,9 C 15,4 C 10,0 km/h (2 Bft)
28.09.2017 16:00 22,2 C 15,3 C 57 % 86 % 1025,8 hPa 0,0 l/m 4,6 km/h (1 Bft) O-NO 0,92 h 0,9 UV-I 192 W/m 12,9 C 15,1 C 10,2 km/h (2 Bft)
28.09.2017 17:00 22,1 C 15,3 C 57 % 86 % 1025,8 hPa 0,0 l/m 3,7 km/h (1 Bft) O-NO 0,55 h 0,6 UV-I 165 W/m 13,0 C 15,2 C 7,5 km/h (2 Bft)
28.09.2017 18:00 22,2 C 14,0 C 57 % 89 % 1026,0 hPa 0,0 l/m 2,5 km/h (1 Bft) O-NO 0,00 h 0,0 UV-I 32 W/m 12,2 C 14,0 C 7,2 km/h (2 Bft)
28.09.2017 19:00 23,1 C 12,7 C 58 % 93 % 1026,2 hPa 0,0 l/m 1,3 km/h (1 Bft) O-NO 0,00 h 0,0 UV-I 0 W/m 11,6 C 12,7 C 4,4 km/h (1 Bft)
28.09.2017 20:00 23,6 C 12,3 C 57 % 94 % 1026,5 hPa 0,0 l/m 0,1 km/h (0 Bft) O-NO 0,00 h 0,0 UV-I 0 W/m 11,4 C 12,3 C 0,9 km/h (0 Bft)
28.09.2017 21:00 23,7 C 12,0 C 57 % 94 % 1026,4 hPa 0,0 l/m 0,0 km/h (0 Bft) N 0,00 h 0,0 UV-I 0 W/m 11,1 C 12,0 C 0,2 km/h (0 Bft)
28.09.2017 22:00 23,7 C 11,5 C 57 % 94 % 1026,2 hPa 0,0 l/m 0,0 km/h (0 Bft) N 0,00 h 0,0 UV-I 0 W/m 10,6 C 11,5 C 0,0 km/h (0 Bft)
28.09.2017 23:00 23,8 C 10,6 C 58 % 93 % 1026,2 hPa 0,0 l/m 0,0 km/h (0 Bft) N 0,00 h 0,0 UV-I 0 W/m 9,5 C 10,6 C 0,1 km/h (0 Bft)
29.09.2017 00:00 24,1 C 9,7 C 58 % 94 % 1025,9 hPa 0,0 l/m 0,0 km/h (0 Bft) O-NO 0,00 h 0,0 UV-I 0 W/m 8,7 C 9,7 C 0,6 km/h (0 Bft)
29.09.2017 01:00 24,2 C 9,1 C 59 % 94 % 1025,6 hPa 0,0 l/m 0,0 km/h (0 Bft) N 0,00 h 0,0 UV-I 0 W/m 8,2 C 9,1 C 0,0 km/h (0 Bft)
29.09.2017 02:00 24,2 C 8,6 C 59 % 94 % 1025,5 hPa 0,0 l/m 0,0 km/h (0 Bft) N 0,00 h 0,0 UV-I 0 W/m 7,7 C 8,6 C 0,0 km/h (0 Bft)
29.09.2017 03:00 24,2 C 7,6 C 60 % 94 % 1025,5 hPa 0,0 l/m 0,0 km/h (0 Bft) N 0,00 h 0,0 UV-I 0 W/m 6,7 C 7,6 C 0,0 km/h (0 Bft)
29.09.2017 04:00 24,2 C 7,3 C 60 % 95 % 1025,2 hPa 0,0 l/m 0,0 km/h (0 Bft) N 0,00 h 0,0 UV-I 0 W/m 6,5 C 7,3 C 0,0 km/h (0 Bft)
29.09.2017 05:00 24,2 C 7,7 C 59 % 96 % 1024,9 hPa 0,0 l/m 0,0 km/h (0 Bft) N 0,00 h 0,0 UV-I 0 W/m 7,0 C 7,7 C 0,0 km/h (0 Bft)
29.09.2017 06:00 24,3 C 8,0 C 59 % 96 % 1024,8 hPa 0,0 l/m 0,0 km/h (0 Bft) N 0,00 h 0,0 UV-I 0 W/m 7,4 C 8,0 C 0,0 km/h (0 Bft)
29.09.2017 07:00 24,3 C 7,9 C 59 % 96 % 1024,9 hPa 0,0 l/m 0,0 km/h (0 Bft) N 0,00 h 0,0 UV-I 19 W/m 7,3 C 7,9 C 0,0 km/h (0 Bft)
29.09.2017 08:00 24,2 C 8,3 C 57 % 97 % 1025,0 hPa 0,0 l/m 0,0 km/h (0 Bft) N 0,30 h 0,5 UV-I 110 W/m 7,8 C 8,3 C 0,0 km/h (0 Bft)
29.09.2017 09:00 23,8 C 12,1 C 55 % 98 % 1025,0 hPa 0,0 l/m 0,4 km/h (0 Bft) O-NO 0,97 h 0,9 UV-I 234 W/m 11,7 C 12,1 C 1,0 km/h (0 Bft)
29.09.2017 10:00 23,4 C 14,8 C 55 % 91 % 1024,9 hPa 0,0 l/m 0,4 km/h (0 Bft) O-NO 0,77 h 1,8 UV-I 377 W/m 13,4 C 14,8 C 1,1 km/h (1 Bft)
29.09.2017 11:00 23,0 C 17,5 C 56 % 79 % 1024,4 hPa 0,0 l/m 0,6 km/h (0 Bft) N-NO 1,00 h 2,3 UV-I 411 W/m 13,8 C 17,5 C 1,4 km/h (1 Bft)
29.09.2017 12:00 23,0 C 17,9 C 56 % 78 % 1023,8 hPa 0,0 l/m 0,3 km/h (0 Bft) SO 1,00 h 2,1 UV-I 316 W/m 13,9 C 17,9 C 0,8 km/h (0 Bft)
29.09.2017 13:00 23,2 C 18,2 C 56 % 76 % 1023,5 hPa 0,0 l/m 0,3 km/h (0 Bft) O 1,00 h 2,3 UV-I 355 W/m 13,9 C 18,2 C 1,2 km/h (1 Bft)
29.09.2017 14:00 23,5 C 19,0 C 56 % 74 % 1023,1 hPa 0,0 l/m 0,2 km/h (0 Bft) O-NO 1,00 h 2,3 UV-I 418 W/m 14,2 C 19,0 C 1,0 km/h (0 Bft)
29.09.2017 15:00 23,7 C 19,0 C 55 % 72 % 1022,8 hPa 0,0 l/m 0,7 km/h (0 Bft) O 0,50 h 1,3 UV-I 192 W/m 13,9 C 19,0 C 1,8 km/h (1 Bft)
29.09.2017 16:00 23,5 C 19,7 C 56 % 72 % 1022,4 hPa 0,0 l/m 1,9 km/h (1 Bft) SW 0,72 h 0,9 UV-I 271 W/m 14,4 C 19,7 C 4,1 km/h (1 Bft)
29.09.2017 17:00 23,4 C 18,0 C 56 % 78 % 1022,1 hPa 0,0 l/m 0,5 km/h (0 Bft) SO 0,02 h 0,5 UV-I 78 W/m 14,1 C 18,0 C 1,6 km/h (1 Bft)
29.09.2017 18:00 23,3 C 16,8 C 56 % 78 % 1022,3 hPa 0,0 l/m 0,2 km/h (0 Bft) O-SO 0,00 h 0,0 UV-I 21 W/m 13,0 C 16,8 C 0,6 km/h (0 Bft)
29.09.2017 19:00 23,3 C 15,7 C 56 % 80 % 1022,5 hPa 0,0 l/m 0,0 km/h (0 Bft) N 0,00 h 0,0 UV-I 0 W/m 12,3 C 15,7 C 0,1 km/h (0 Bft)
29.09.2017 20:00 23,6 C 14,1 C 56 % 83 % 1022,5 hPa 0,0 l/m 0,0 km/h (0 Bft) N 0,00 h 0,0 UV-I 0 W/m 11,3 C 14,1 C 0,7 km/h (0 Bft)
29.09.2017 21:00 23,8 C 12,8 C 56 % 85 % 1022,4 hPa 0,0 l/m 0,0 km/h (0 Bft) NO 0,00 h 0,0 UV-I 0 W/m 10,4 C 12,8 C 0,5 km/h (0 Bft)
29.09.2017 22:00 23,9 C 11,4 C 56 % 88 % 1022,1 hPa 0,0 l/m 0,0 km/h (0 Bft) N 0,00 h 0,0 UV-I 0 W/m 9,5 C 11,4 C 0,0 km/h (0 Bft)
29.09.2017 23:00 24,1 C 10,3 C 57 % 90 % 1021,8 hPa 0,0 l/m 0,0 km/h (0 Bft) N 0,00 h 0,0 UV-I 0 W/m 8,8 C 10,3 C 0,0 km/h (0 Bft)
30.09.2017 00:00 24,2 C 9,5 C 59 % 91 % 1021,6 hPa 0,0 l/m 0,0 km/h (0 Bft) N 0,00 h 0,0 UV-I 0 W/m 8,1 C 9,5 C 0,0 km/h (0 Bft)
30.09.2017 01:00 24,3 C 9,1 C 59 % 92 % 1021,3 hPa 0,0 l/m 0,0 km/h (0 Bft) N 0,00 h 0,0 UV-I 0 W/m 8,0 C 9,1 C 0,0 km/h (0 Bft)
30.09.2017 02:00 24,3 C 8,3 C 59 % 92 % 1021,1 hPa 0,0 l/m 0,0 km/h (0 Bft) N 0,00 h 0,0 UV-I 0 W/m 7,1 C 8,3 C 0,2 km/h (0 Bft)
30.09.2017 03:00 24,3 C 7,7 C 58 % 93 % 1020,8 hPa 0,0 l/m 0,1 km/h (0 Bft) O-NO 0,00 h 0,0 UV-I 0 W/m 6,7 C 7,7 C 0,5 km/h (0 Bft)
30.09.2017 04:00 24,3 C 8,7 C 59 % 95 % 1020,4 hPa 0,0 l/m 0,5 km/h (0 Bft) O-NO 0,00 h 0,0 UV-I 0 W/m 8,0 C 8,7 C 2,0 km/h (1 Bft)
30.09.2017 05:00 24,3 C 8,4 C 59 % 95 % 1020,1 hPa 0,0 l/m 0,0 km/h (0 Bft) N 0,00 h 0,0 UV-I 0 W/m 7,6 C 8,4 C 0,4 km/h (0 Bft)
30.09.2017 06:00 24,3 C 7,8 C 59 % 95 % 1019,8 hPa 0,0 l/m 0,2 km/h (0 Bft) O-NO 0,00 h 0,0 UV-I 0 W/m 7,0 C 7,8 C 1,4 km/h (1 Bft)
30.09.2017 07:00 24,3 C 8,1 C 59 % 95 % 1019,8 hPa 0,0 l/m 0,3 km/h (0 Bft) O-NO 0,00 h 0,0 UV-I 21 W/m 7,4 C 8,1 C 1,6 km/h (1 Bft)
30.09.2017 08:00 24,3 C 10,2 C 57 % 94 % 1019,6 hPa 0,0 l/m 2,7 km/h (1 Bft) O-NO 0,40 h 0,6 UV-I 131 W/m 9,3 C 10,1 C 7,8 km/h (2 Bft)
30.09.2017 09:00 24,1 C 13,2 C 56 % 84 % 1019,4 hPa 0,0 l/m 2,8 km/h (1 Bft) O-NO 1,00 h 1,1 UV-I 308 W/m 10,5 C 13,1 C 6,9 km/h (2 Bft)
30.09.2017 10:00 23,6 C 15,2 C 53 % 77 % 1019,2 hPa 0,0 l/m 2,0 km/h (1 Bft) NO 1,00 h 1,5 UV-I 307 W/m 11,3 C 15,2 C 4,6 km/h (1 Bft)
30.09.2017 11:00 23,0 C 15,8 C 54 % 76 % 1018,8 hPa 0,0 l/m 2,8 km/h (1 Bft) O 1,00 h 2,1 UV-I 349 W/m 11,6 C 15,7 C 6,5 km/h (2 Bft)
30.09.2017 12:00 23,4 C 17,1 C 54 % 74 % 1018,0 hPa 0,0 l/m 3,0 km/h (1 Bft) O-NO 1,00 h 2,7 UV-I 434 W/m 12,4 C 17,0 C 6,4 km/h (2 Bft)
30.09.2017 13:00 23,8 C 18,7 C 54 % 69 % 1017,2 hPa 0,0 l/m 3,8 km/h (1 Bft) O-SO 1,00 h 2,9 UV-I 489 W/m 12,9 C 18,5 C 8,0 km/h (2 Bft)
30.09.2017 14:00 23,8 C 19,4 C 53 % 66 % 1016,5 hPa 0,0 l/m 4,1 km/h (1 Bft) SO 1,00 h 2,3 UV-I 409 W/m 12,9 C 19,3 C 8,7 km/h (2 Bft)
30.09.2017 15:00 23,9 C 19,1 C 53 % 67 % 1016,1 hPa 0,0 l/m 4,2 km/h (1 Bft) SO 1,00 h 1,7 UV-I 341 W/m 12,8 C 18,9 C 9,8 km/h (2 Bft)
30.09.2017 16:00 23,7 C 18,9 C 52 % 67 % 1016,0 hPa 0,0 l/m 6,0 km/h (2 Bft) SO 1,00 h 1,1 UV-I 306 W/m 12,6 C 18,6 C 11,4 km/h (2 Bft)
30.09.2017 17:00 23,6 C 18,0 C 52 % 68 % 1015,9 hPa 0,0 l/m 3,0 km/h (1 Bft) O-SO 0,25 h 0,6 UV-I 120 W/m 11,9 C 17,9 C 7,8 km/h (2 Bft)
30.09.2017 18:00 23,9 C 16,8 C 54 % 69 % 1015,7 hPa 0,0 l/m 0,2 km/h (0 Bft) O 0,00 h 0,0 UV-I 31 W/m 11,1 C 16,8 C 0,7 km/h (0 Bft)
30.09.2017 19:00 24,0 C 15,2 C 55 % 74 % 1015,8 hPa 0,0 l/m 0,1 km/h (0 Bft) O 0,00 h 0,0 UV-I 0 W/m 10,5 C 15,2 C 0,3 km/h (0 Bft)
30.09.2017 20:00 24,0 C 14,6 C 55 % 74 % 1016,0 hPa 0,0 l/m 0,1 km/h (0 Bft) O-NO 0,00 h 0,0 UV-I 0 W/m 10,0 C 14,6 C 1,1 km/h (1 Bft)
30.09.2017 21:00 24,0 C 14,1 C 56 % 75 % 1016,2 hPa 0,0 l/m 0,1 km/h (0 Bft) O 0,00 h 0,0 UV-I 0 W/m 9,7 C 14,1 C 0,5 km/h (0 Bft)
30.09.2017 22:00 24,0 C 13,0 C 56 % 79 % 1016,5 hPa 0,0 l/m 0,1 km/h (0 Bft) O 0,00 h 0,0 UV-I 0 W/m 9,4 C 13,0 C 0,5 km/h (0 Bft)
30.09.2017 23:00 24,1 C 12,8 C 57 % 81 % 1016,7 hPa 0,0 l/m 0,0 km/h (0 Bft) N 0,00 h 0,0 UV-I 0 W/m 9,6 C 12,8 C 0,0 km/h (0 Bft)
01.10.2017 00:00 24,2 C 12,6 C 58 % 84 % 1017,0 hPa 0,0 l/m 0,0 km/h (0 Bft) N 0,00 h 0,0 UV-I 0 W/m 10,0 C 12,6 C 0,1 km/h (0 Bft)
01.10.2017 01:00 24,3 C 12,3 C 59 % 83 % 1016,9 hPa 0,0 l/m 0,3 km/h (0 Bft) O-NO 0,00 h 0,0 UV-I 0 W/m 9,6 C 12,3 C 1,9 km/h (1 Bft)
01.10.2017 02:00 24,4 C 12,4 C 58 % 79 % 1017,0 hPa 0,0 l/m 0,1 km/h (0 Bft) O 0,00 h 0,0 UV-I 0 W/m 8,9 C 12,4 C 1,1 km/h (1 Bft)
01.10.2017 03:00 24,4 C 12,1 C 58 % 79 % 1017,3 hPa 0,0 l/m 0,2 km/h (0 Bft) O-NO 0,00 h 0,0 UV-I 0 W/m 8,7 C 12,1 C 1,2 km/h (1 Bft)
01.10.2017 04:00 24,3 C 11,9 C 59 % 83 % 1017,6 hPa 0,2 l/m 0,0 km/h (0 Bft) N 0,00 h 0,0 UV-I 0 W/m 9,0 C 11,9 C 0,2 km/h (0 Bft)
01.10.2017 05:00 24,3 C 11,6 C 59 % 89 % 1018,0 hPa 1,2 l/m 0,0 km/h (0 Bft) N 0,00 h 0,0 UV-I 0 W/m 9,8 C 11,6 C 0,1 km/h (0 Bft)
01.10.2017 06:00 24,4 C 11,3 C 59 % 92 % 1018,4 hPa 1,6 l/m 0,0 km/h (0 Bft) N 0,00 h 0,0 UV-I 0 W/m 10,1 C 11,3 C 0,1 km/h (0 Bft)
01.10.2017 07:00 24,5 C 11,1 C 59 % 93 % 1019,0 hPa 1,4 l/m 0,2 km/h (0 Bft) N 0,00 h 0,0 UV-I 9 W/m 10,1 C 11,1 C 0,5 km/h (0 Bft)
01.10.2017 08:00 24,5 C 11,1 C 59 % 94 % 1019,6 hPa 1,2 l/m 0,4 km/h (0 Bft) NW 0,00 h 0,0 UV-I 24 W/m 10,2 C 11,1 C 1,4 km/h (1 Bft)
01.10.2017 09:00 24,5 C 11,1 C 60 % 95 % 1020,2 hPa 0,2 l/m 0,1 km/h (0 Bft) W-NW 0,00 h 0,5 UV-I 54 W/m 10,3 C 11,1 C 0,6 km/h (0 Bft)
01.10.2017 10:00 24,4 C 11,3 C 59 % 95 % 1020,8 hPa 0,0 l/m 0,3 km/h (0 Bft) N 0,25 h 0,8 UV-I 119 W/m 10,5 C 11,3 C 1,1 km/h (1 Bft)
01.10.2017 11:00 24,0 C 12,0 C 57 % 95 % 1020,9 hPa 0,0 l/m 0,5 km/h (0 Bft) NW 0,78 h 1,3 UV-I 189 W/m 11,2 C 12,0 C 2,5 km/h (1 Bft)
01.10.2017 12:00 23,8 C 12,8 C 56 % 91 % 1021,0 hPa 0,0 l/m 0,7 km/h (0 Bft) NW 0,52 h 1,4 UV-I 162 W/m 11,4 C 12,8 C 2,2 km/h (1 Bft)
01.10.2017 13:00 23,7 C 13,3 C 55 % 89 % 1021,1 hPa 0,0 l/m 0,1 km/h (0 Bft) N 0,45 h 1,2 UV-I 143 W/m 11,5 C 13,3 C 0,6 km/h (0 Bft)
01.10.2017 14:00 23,7 C 14,2 C 56 % 86 % 1021,0 hPa 0,0 l/m 0,7 km/h (0 Bft) O-NO 0,92 h 2,0 UV-I 275 W/m 11,9 C 14,2 C 1,8 km/h (1 Bft)
01.10.2017 15:00 23,9 C 14,5 C 55 % 83 % 1021,0 hPa 0,0 l/m 0,3 km/h (0 Bft) S 0,40 h 0,9 UV-I 157 W/m 11,5 C 14,5 C 0,9 km/h (0 Bft)
01.10.2017 16:00 23,9 C 14,1 C 55 % 85 % 1021,2 hPa 0,0 l/m 1,2 km/h (1 Bft) W-SW 0,10 h 0,7 UV-I 110 W/m 11,6 C 14,1 C 4,0 km/h (1 Bft)
01.10.2017 17:00 24,0 C 14,3 C 55 % 84 % 1021,1 hPa 0,0 l/m 2,5 km/h (1 Bft) W 0,35 h 0,5 UV-I 139 W/m 11,7 C 14,3 C 5,2 km/h (1 Bft)
01.10.2017 18:00 23,9 C 13,7 C 55 % 85 % 1021,3 hPa 0,0 l/m 0,1 km/h (0 Bft) W-SW 0,00 h 0,0 UV-I 40 W/m 11,3 C 13,7 C 0,7 km/h (0 Bft)
01.10.2017 19:00 24,0 C 12,4 C 56 % 88 % 1021,7 hPa 0,0 l/m 0,0 km/h (0 Bft) N 0,00 h 0,0 UV-I 0 W/m 10,5 C 12,4 C 0,0 km/h (0 Bft)
01.10.2017 20:00 24,2 C 11,6 C 57 % 91 % 1022,1 hPa 0,0 l/m 0,0 km/h (0 Bft) N 0,00 h 0,0 UV-I 0 W/m 10,1 C 11,6 C 0,0 km/h (0 Bft)
01.10.2017 21:00 24,3 C 11,2 C 58 % 93 % 1022,1 hPa 0,0 l/m 0,0 km/h (0 Bft) N 0,00 h 0,0 UV-I 0 W/m 10,1 C 11,2 C 0,0 km/h (0 Bft)
01.10.2017 22:00 24,2 C 11,1 C 58 % 93 % 1022,0 hPa 0,0 l/m 0,0 km/h (0 Bft) N 0,00 h 0,0 UV-I 0 W/m 10,1 C 11,1 C 0,0 km/h (0 Bft)
01.10.2017 23:00 24,2 C 10,3 C 59 % 93 % 1022,0 hPa 0,0 l/m 0,0 km/h (0 Bft) N 0,00 h 0,0 UV-I 0 W/m 9,2 C 10,3 C 0,0 km/h (0 Bft)
Min-Datum _ 26.09.17 28.09.17 27.09.17 30.09.17 30.09.17 - 25.09.17 - - - - 28.09.17 28.09.17 25.09.17
_ Min-Zeit 10:03 06:49 15:34 14:43 18:35 - 00:00 - - - - 05:48 05:41 00:00
Minimum _ 21,4 C 0,0 C 50 % 64 % 1015,6 hPa - 0,0 km/h (0 Bft) - - - - 5,2 C 6,2 C 0,0 km/h (0 Bft)
Max-Datum _ 01.10.17 29.09.17 26.09.17 28.09.17 28.09.17 01.10.17 26.09.17 - 25.09.17 30.09.17 30.09.17 29.09.17 29.09.17 27.09.17
_ Max-Zeit 07:02 16:29 03:29 09:35 20:50 06:03 16:02 - 15:56 12:37 12:39 16:36 16:29 08:51
Maximum _ 24,6 C 20,3 C 63 % 98 % 1026,6 hPa 1,6 l/m 12,9 km/h
SO (3 Bft)
- 0,03 h 3,7 UV-I 782 W/m 15,1 C 20,3 C 20,9 km/h
O (4 Bft)
Durchschnitt _ 23,5 C 12,5 C 57 % 87 % 1022,1 hPa #5,8 l/m 0,8 km/h (0 Bft) O-NO #44:13 h 1,3 UV-I 200 W/m 10,2 C 12,4 C 2,0 km/h (1 Bft)